WSSS

Singapore Changi International Airport

Singapore, Singapore
TAF WSSS 162300Z 1700/1806 18010KT 9999 FEW018CB SCT020
Issued Valid From Valid To
Jul-16 @ 23:00 UTC
(an hour ago)
Jul-17 @ 00:00 UTC
(26 minutes ago)
Jul-18 @ 06:00 UTC
(-1 days ago)
Jul-17 @ 00:00 to Jul-18 @ 06:00
TAF WSSS 162300Z 1700/1806 18010KT 9999 FEW018CB SCT020
Wind Visibility Clouds
180° at 10 knots 10,000+ meters
  • Few at 1,800' AGL
  • Scattered at 2,000' AGL
TAF WSSS 162300Z 1700/1806 18010KT 9999 FEW018CB SCT020
Issued Jul-16 @ 23:00 UTC
(an hour ago)
Valid From Jul-17 @ 00:00 UTC
(26 minutes ago)
Valid To Jul-18 @ 06:00 UTC
(-1 days ago)
Jul-17 @ 00:00 - Jul-18 @ 06:00
Wind Visibility
180° at 10 knots 10,000+ meters
Clouds
  • Few at 1,800' AGL
  • Scattered at 2,000' AGL